sensor_id;sensor_type;location;lat;lon;timestamp;P1;durP1;ratioP1;P2;durP2;ratioP2
20073;SDS011;10197;54.282;10.078;2023-05-07T00:02:24;14.65;;;9.77;;
20073;SDS011;10197;54.282;10.078;2023-05-07T00:04:52;18.73;;;10.93;;
20073;SDS011;10197;54.282;10.078;2023-05-07T00:07:18;18.25;;;11.88;;
20073;SDS011;10197;54.282;10.078;2023-05-07T00:09:45;18.30;;;10.48;;
20073;SDS011;10197;54.282;10.078;2023-05-07T00:12:12;18.35;;;10.38;;
20073;SDS011;10197;54.282;10.078;2023-05-07T00:14:40;20.90;;;10.45;;
20073;SDS011;10197;54.282;10.078;2023-05-07T00:17:07;22.52;;;11.65;;
20073;SDS011;10197;54.282;10.078;2023-05-07T00:19:34;17.52;;;10.55;;
20073;SDS011;10197;54.282;10.078;2023-05-07T00:22:01;16.73;;;11.07;;
20073;SDS011;10197;54.282;10.078;2023-05-07T00:24:28;18.40;;;12.02;;
20073;SDS011;10197;54.282;10.078;2023-05-07T00:26:55;17.25;;;12.13;;
20073;SDS011;10197;54.282;10.078;2023-05-07T00:29:23;15.13;;;11.57;;
20073;SDS011;10197;54.282;10.078;2023-05-07T00:31:51;18.60;;;12.25;;
20073;SDS011;10197;54.282;10.078;2023-05-07T00:34:19;19.60;;;12.40;;
20073;SDS011;10197;54.282;10.078;2023-05-07T00:36:47;16.98;;;11.88;;
20073;SDS011;10197;54.282;10.078;2023-05-07T00:39:15;15.55;;;11.25;;
20073;SDS011;10197;54.282;10.078;2023-05-07T00:41:41;20.25;;;11.80;;
20073;SDS011;10197;54.282;10.078;2023-05-07T00:44:08;16.88;;;11.05;;
20073;SDS011;10197;54.282;10.078;2023-05-07T00:46:36;17.33;;;12.98;;
20073;SDS011;10197;54.282;10.078;2023-05-07T00:49:04;15.68;;;10.80;;
20073;SDS011;10197;54.282;10.078;2023-05-07T00:51:31;19.98;;;11.50;;
20073;SDS011;10197;54.282;10.078;2023-05-07T00:53:59;17.77;;;11.80;;
20073;SDS011;10197;54.282;10.078;2023-05-07T00:56:28;15.70;;;11.07;;
20073;SDS011;10197;54.282;10.078;2023-05-07T00:58:55;18.45;;;11.02;;
20073;SDS011;10197;54.282;10.078;2023-05-07T01:01:22;14.60;;;10.75;;
20073;SDS011;10197;54.282;10.078;2023-05-07T01:03:48;16.73;;;12.05;;
20073;SDS011;10197;54.282;10.078;2023-05-07T01:06:17;15.48;;;10.75;;
20073;SDS011;10197;54.282;10.078;2023-05-07T01:08:44;17.88;;;11.32;;
20073;SDS011;10197;54.282;10.078;2023-05-07T01:11:11;13.85;;;11.10;;
20073;SDS011;10197;54.282;10.078;2023-05-07T01:13:38;15.85;;;11.38;;
20073;SDS011;10197;54.282;10.078;2023-05-07T01:16:06;14.02;;;10.25;;
20073;SDS011;10197;54.282;10.078;2023-05-07T01:18:35;13.07;;;10.82;;
20073;SDS011;10197;54.282;10.078;2023-05-07T01:21:02;20.48;;;12.05;;
20073;SDS011;10197;54.282;10.078;2023-05-07T01:23:32;15.27;;;11.00;;
20073;SDS011;10197;54.282;10.078;2023-05-07T01:26:01;13.20;;;10.77;;
20073;SDS011;10197;54.282;10.078;2023-05-07T01:28:30;15.65;;;12.05;;
20073;SDS011;10197;54.282;10.078;2023-05-07T01:31:00;16.80;;;11.10;;
20073;SDS011;10197;54.282;10.078;2023-05-07T01:33:33;15.13;;;11.48;;
20073;SDS011;10197;54.282;10.078;2023-05-07T01:36:02;15.18;;;11.50;;
20073;SDS011;10197;54.282;10.078;2023-05-07T01:38:32;21.27;;;13.88;;
20073;SDS011;10197;54.282;10.078;2023-05-07T01:40:59;18.33;;;12.38;;
20073;SDS011;10197;54.282;10.078;2023-05-07T01:43:26;16.00;;;12.23;;
20073;SDS011;10197;54.282;10.078;2023-05-07T01:45:54;16.08;;;12.23;;
20073;SDS011;10197;54.282;10.078;2023-05-07T01:48:22;15.02;;;10.98;;
20073;SDS011;10197;54.282;10.078;2023-05-07T01:50:49;12.27;;;9.55;;
20073;SDS011;10197;54.282;10.078;2023-05-07T01:53:16;16.70;;;12.55;;
20073;SDS011;10197;54.282;10.078;2023-05-07T01:55:45;16.58;;;12.35;;
20073;SDS011;10197;54.282;10.078;2023-05-07T01:58:11;16.92;;;11.48;;
20073;SDS011;10197;54.282;10.078;2023-05-07T02:00:39;15.18;;;11.80;;
20073;SDS011;10197;54.282;10.078;2023-05-07T02:03:07;17.35;;;12.63;;
20073;SDS011;10197;54.282;10.078;2023-05-07T02:05:41;15.48;;;12.45;;
20073;SDS011;10197;54.282;10.078;2023-05-07T02:08:26;14.18;;;12.05;;
20073;SDS011;10197;54.282;10.078;2023-05-07T02:10:54;14.90;;;12.38;;
20073;SDS011;10197;54.282;10.078;2023-05-07T02:13:21;15.32;;;11.95;;
20073;SDS011;10197;54.282;10.078;2023-05-07T02:15:49;16.10;;;12.60;;
20073;SDS011;10197;54.282;10.078;2023-05-07T02:18:17;14.55;;;10.38;;
20073;SDS011;10197;54.282;10.078;2023-05-07T02:20:44;14.52;;;11.65;;
20073;SDS011;10197;54.282;10.078;2023-05-07T02:23:11;13.68;;;11.10;;
20073;SDS011;10197;54.282;10.078;2023-05-07T02:25:38;16.05;;;12.07;;
20073;SDS011;10197;54.282;10.078;2023-05-07T02:28:07;17.48;;;13.00;;
20073;SDS011;10197;54.282;10.078;2023-05-07T02:30:43;15.35;;;12.38;;
20073;SDS011;10197;54.282;10.078;2023-05-07T02:33:10;14.23;;;11.30;;
20073;SDS011;10197;54.282;10.078;2023-05-07T02:35:38;13.68;;;11.73;;
20073;SDS011;10197;54.282;10.078;2023-05-07T02:38:05;15.77;;;11.30;;
20073;SDS011;10197;54.282;10.078;2023-05-07T02:40:33;13.20;;;10.65;;
20073;SDS011;10197;54.282;10.078;2023-05-07T02:43:04;13.18;;;11.50;;
20073;SDS011;10197;54.282;10.078;2023-05-07T02:45:32;14.57;;;11.88;;
20073;SDS011;10197;54.282;10.078;2023-05-07T02:48:00;12.52;;;11.23;;
20073;SDS011;10197;54.282;10.078;2023-05-07T02:50:27;13.15;;;11.32;;
20073;SDS011;10197;54.282;10.078;2023-05-07T02:52:55;13.15;;;11.40;;
20073;SDS011;10197;54.282;10.078;2023-05-07T02:55:22;13.30;;;11.13;;
20073;SDS011;10197;54.282;10.078;2023-05-07T02:57:49;13.73;;;10.70;;
20073;SDS011;10197;54.282;10.078;2023-05-07T03:00:16;13.65;;;10.38;;
20073;SDS011;10197;54.282;10.078;2023-05-07T03:03:01;13.85;;;11.55;;
20073;SDS011;10197;54.282;10.078;2023-05-07T03:05:28;14.43;;;11.65;;
20073;SDS011;10197;54.282;10.078;2023-05-07T03:07:55;12.25;;;10.38;;
20073;SDS011;10197;54.282;10.078;2023-05-07T03:10:22;12.63;;;10.27;;
20073;SDS011;10197;54.282;10.078;2023-05-07T03:12:49;13.63;;;10.70;;
20073;SDS011;10197;54.282;10.078;2023-05-07T03:15:17;12.40;;;10.90;;
20073;SDS011;10197;54.282;10.078;2023-05-07T03:17:44;14.35;;;11.35;;
20073;SDS011;10197;54.282;10.078;2023-05-07T03:20:12;14.23;;;11.32;;
20073;SDS011;10197;54.282;10.078;2023-05-07T03:22:40;14.73;;;11.70;;
20073;SDS011;10197;54.282;10.078;2023-05-07T03:25:08;14.85;;;11.20;;
20073;SDS011;10197;54.282;10.078;2023-05-07T03:27:35;14.35;;;11.43;;
20073;SDS011;10197;54.282;10.078;2023-05-07T03:30:02;16.95;;;11.25;;
20073;SDS011;10197;54.282;10.078;2023-05-07T03:32:30;12.63;;;10.90;;
20073;SDS011;10197;54.282;10.078;2023-05-07T03:34:57;11.52;;;10.40;;
20073;SDS011;10197;54.282;10.078;2023-05-07T03:37:25;12.15;;;10.85;;
20073;SDS011;10197;54.282;10.078;2023-05-07T03:39:53;12.85;;;10.77;;
20073;SDS011;10197;54.282;10.078;2023-05-07T03:42:20;13.52;;;10.30;;
20073;SDS011;10197;54.282;10.078;2023-05-07T03:44:49;13.45;;;11.30;;
20073;SDS011;10197;54.282;10.078;2023-05-07T03:47:17;13.35;;;10.82;;
20073;SDS011;10197;54.282;10.078;2023-05-07T03:49:45;14.15;;;11.00;;
20073;SDS011;10197;54.282;10.078;2023-05-07T03:52:13;12.75;;;11.32;;
20073;SDS011;10197;54.282;10.078;2023-05-07T03:54:41;14.25;;;11.85;;
20073;SDS011;10197;54.282;10.078;2023-05-07T03:57:10;14.55;;;11.07;;
20073;SDS011;10197;54.282;10.078;2023-05-07T03:59:37;11.52;;;9.57;;
20073;SDS011;10197;54.282;10.078;2023-05-07T04:02:05;13.48;;;10.52;;
20073;SDS011;10197;54.282;10.078;2023-05-07T04:04:33;12.07;;;10.07;;
20073;SDS011;10197;54.282;10.078;2023-05-07T04:07:03;12.23;;;10.68;;
20073;SDS011;10197;54.282;10.078;2023-05-07T04:09:36;11.05;;;9.70;;
20073;SDS011;10197;54.282;10.078;2023-05-07T04:12:04;14.32;;;11.98;;
20073;SDS011;10197;54.282;10.078;2023-05-07T04:14:33;10.65;;;9.60;;
20073;SDS011;10197;54.282;10.078;2023-05-07T04:17:00;11.70;;;9.90;;
20073;SDS011;10197;54.282;10.078;2023-05-07T04:19:28;12.82;;;10.63;;
20073;SDS011;10197;54.282;10.078;2023-05-07T04:21:56;13.10;;;10.38;;
20073;SDS011;10197;54.282;10.078;2023-05-07T04:24:23;11.50;;;9.90;;
20073;SDS011;10197;54.282;10.078;2023-05-07T04:26:50;10.98;;;9.88;;
20073;SDS011;10197;54.282;10.078;2023-05-07T04:29:21;10.88;;;8.95;;
20073;SDS011;10197;54.282;10.078;2023-05-07T04:31:48;9.95;;;8.93;;
20073;SDS011;10197;54.282;10.078;2023-05-07T04:34:15;12.73;;;9.77;;
20073;SDS011;10197;54.282;10.078;2023-05-07T04:36:42;12.13;;;9.70;;
20073;SDS011;10197;54.282;10.078;2023-05-07T04:39:11;10.52;;;9.30;;
20073;SDS011;10197;54.282;10.078;2023-05-07T04:41:40;9.65;;;8.60;;
20073;SDS011;10197;54.282;10.078;2023-05-07T04:44:08;11.18;;;9.73;;
20073;SDS011;10197;54.282;10.078;2023-05-07T04:46:38;11.73;;;9.55;;
20073;SDS011;10197;54.282;10.078;2023-05-07T04:49:05;11.27;;;8.68;;
20073;SDS011;10197;54.282;10.078;2023-05-07T04:51:32;10.15;;;8.52;;
20073;SDS011;10197;54.282;10.078;2023-05-07T04:53:59;9.32;;;8.07;;
20073;SDS011;10197;54.282;10.078;2023-05-07T04:56:29;10.52;;;9.43;;
20073;SDS011;10197;54.282;10.078;2023-05-07T04:58:56;10.88;;;9.52;;
20073;SDS011;10197;54.282;10.078;2023-05-07T05:01:23;9.25;;;8.35;;
20073;SDS011;10197;54.282;10.078;2023-05-07T05:03:51;11.10;;;9.90;;
20073;SDS011;10197;54.282;10.078;2023-05-07T05:06:19;13.05;;;9.23;;
20073;SDS011;10197;54.282;10.078;2023-05-07T05:08:46;10.43;;;9.35;;
20073;SDS011;10197;54.282;10.078;2023-05-07T05:11:13;9.60;;;8.55;;
20073;SDS011;10197;54.282;10.078;2023-05-07T05:13:40;11.10;;;9.90;;
20073;SDS011;10197;54.282;10.078;2023-05-07T05:16:12;10.13;;;9.13;;
20073;SDS011;10197;54.282;10.078;2023-05-07T05:18:42;10.75;;;9.02;;
20073;SDS011;10197;54.282;10.078;2023-05-07T05:21:13;10.93;;;9.82;;
20073;SDS011;10197;54.282;10.078;2023-05-07T05:23:42;12.30;;;9.93;;
20073;SDS011;10197;54.282;10.078;2023-05-07T05:26:10;12.10;;;9.35;;
20073;SDS011;10197;54.282;10.078;2023-05-07T05:28:37;10.27;;;9.18;;
20073;SDS011;10197;54.282;10.078;2023-05-07T05:31:04;11.55;;;10.15;;
20073;SDS011;10197;54.282;10.078;2023-05-07T05:33:34;11.55;;;9.50;;
20073;SDS011;10197;54.282;10.078;2023-05-07T05:36:04;12.00;;;9.48;;
20073;SDS011;10197;54.282;10.078;2023-05-07T05:38:33;12.43;;;10.38;;
20073;SDS011;10197;54.282;10.078;2023-05-07T05:41:00;12.45;;;9.95;;
20073;SDS011;10197;54.282;10.078;2023-05-07T05:43:28;12.23;;;10.02;;
20073;SDS011;10197;54.282;10.078;2023-05-07T05:45:55;11.23;;;10.05;;
20073;SDS011;10197;54.282;10.078;2023-05-07T05:48:23;12.32;;;10.15;;
20073;SDS011;10197;54.282;10.078;2023-05-07T05:50:50;13.18;;;9.90;;
20073;SDS011;10197;54.282;10.078;2023-05-07T05:53:18;11.35;;;10.13;;
20073;SDS011;10197;54.282;10.078;2023-05-07T05:55:46;13.70;;;10.27;;
20073;SDS011;10197;54.282;10.078;2023-05-07T05:58:13;10.77;;;9.30;;
20073;SDS011;10197;54.282;10.078;2023-05-07T06:00:47;12.30;;;9.63;;
20073;SDS011;10197;54.282;10.078;2023-05-07T06:03:19;9.98;;;8.88;;
20073;SDS011;10197;54.282;10.078;2023-05-07T06:05:46;11.18;;;9.63;;
20073;SDS011;10197;54.282;10.078;2023-05-07T06:08:14;12.70;;;9.50;;
20073;SDS011;10197;54.282;10.078;2023-05-07T06:10:41;11.32;;;9.68;;
20073;SDS011;10197;54.282;10.078;2023-05-07T06:13:10;11.07;;;8.75;;
20073;SDS011;10197;54.282;10.078;2023-05-07T06:15:37;10.75;;;9.02;;
20073;SDS011;10197;54.282;10.078;2023-05-07T06:18:08;9.63;;;8.15;;
20073;SDS011;10197;54.282;10.078;2023-05-07T06:20:36;9.70;;;8.23;;
20073;SDS011;10197;54.282;10.078;2023-05-07T06:23:07;10.52;;;8.50;;
20073;SDS011;10197;54.282;10.078;2023-05-07T06:25:34;11.10;;;9.27;;
20073;SDS011;10197;54.282;10.078;2023-05-07T06:28:01;10.25;;;8.43;;
20073;SDS011;10197;54.282;10.078;2023-05-07T06:30:31;9.75;;;8.40;;
20073;SDS011;10197;54.282;10.078;2023-05-07T06:32:58;10.07;;;7.97;;
20073;SDS011;10197;54.282;10.078;2023-05-07T06:35:28;11.82;;;8.13;;
20073;SDS011;10197;54.282;10.078;2023-05-07T06:37:55;11.07;;;8.70;;
20073;SDS011;10197;54.282;10.078;2023-05-07T06:40:25;9.52;;;8.23;;
20073;SDS011;10197;54.282;10.078;2023-05-07T06:42:52;8.63;;;7.30;;
20073;SDS011;10197;54.282;10.078;2023-05-07T06:45:33;9.63;;;7.95;;
20073;SDS011;10197;54.282;10.078;2023-05-07T06:48:00;9.68;;;7.97;;
20073;SDS011;10197;54.282;10.078;2023-05-07T06:50:31;9.48;;;7.68;;
20073;SDS011;10197;54.282;10.078;2023-05-07T06:52:58;8.93;;;7.50;;
20073;SDS011;10197;54.282;10.078;2023-05-07T06:55:26;8.77;;;7.55;;
20073;SDS011;10197;54.282;10.078;2023-05-07T06:57:54;7.78;;;6.95;;
20073;SDS011;10197;54.282;10.078;2023-05-07T07:00:25;7.40;;;6.68;;
20073;SDS011;10197;54.282;10.078;2023-05-07T07:02:56;10.35;;;8.13;;
20073;SDS011;10197;54.282;10.078;2023-05-07T07:05:26;8.75;;;7.13;;
20073;SDS011;10197;54.282;10.078;2023-05-07T07:07:54;8.15;;;7.10;;
20073;SDS011;10197;54.282;10.078;2023-05-07T07:10:21;8.30;;;7.13;;
20073;SDS011;10197;54.282;10.078;2023-05-07T07:12:50;10.05;;;8.05;;
20073;SDS011;10197;54.282;10.078;2023-05-07T07:15:19;9.63;;;8.10;;
20073;SDS011;10197;54.282;10.078;2023-05-07T07:17:49;9.32;;;7.68;;
20073;SDS011;10197;54.282;10.078;2023-05-07T07:20:18;9.55;;;7.97;;
20073;SDS011;10197;54.282;10.078;2023-05-07T07:22:46;8.68;;;7.88;;
20073;SDS011;10197;54.282;10.078;2023-05-07T07:25:15;9.88;;;8.35;;
20073;SDS011;10197;54.282;10.078;2023-05-07T07:27:42;8.35;;;7.22;;
20073;SDS011;10197;54.282;10.078;2023-05-07T07:30:10;10.75;;;7.03;;
20073;SDS011;10197;54.282;10.078;2023-05-07T07:32:40;8.63;;;7.35;;
20073;SDS011;10197;54.282;10.078;2023-05-07T07:35:07;10.23;;;7.60;;
20073;SDS011;10197;54.282;10.078;2023-05-07T07:37:37;10.32;;;8.35;;
20073;SDS011;10197;54.282;10.078;2023-05-07T07:40:04;8.27;;;7.07;;
20073;SDS011;10197;54.282;10.078;2023-05-07T07:42:33;9.18;;;6.90;;
20073;SDS011;10197;54.282;10.078;2023-05-07T07:45:00;11.07;;;6.80;;
20073;SDS011;10197;54.282;10.078;2023-05-07T07:47:31;7.95;;;6.57;;
20073;SDS011;10197;54.282;10.078;2023-05-07T07:49:58;8.85;;;7.32;;
20073;SDS011;10197;54.282;10.078;2023-05-07T07:52:26;8.43;;;6.40;;
20073;SDS011;10197;54.282;10.078;2023-05-07T07:54:54;7.93;;;6.20;;
20073;SDS011;10197;54.282;10.078;2023-05-07T07:57:22;7.32;;;6.63;;
20073;SDS011;10197;54.282;10.078;2023-05-07T07:59:48;7.10;;;6.38;;
20073;SDS011;10197;54.282;10.078;2023-05-07T08:02:16;6.97;;;5.75;;
20073;SDS011;10197;54.282;10.078;2023-05-07T08:04:44;6.43;;;5.82;;
20073;SDS011;10197;54.282;10.078;2023-05-07T08:07:11;6.97;;;6.28;;
20073;SDS011;10197;54.282;10.078;2023-05-07T08:09:41;6.65;;;5.88;;
20073;SDS011;10197;54.282;10.078;2023-05-07T08:12:10;5.95;;;5.35;;
20073;SDS011;10197;54.282;10.078;2023-05-07T08:14:38;6.93;;;5.63;;
20073;SDS011;10197;54.282;10.078;2023-05-07T08:17:06;5.82;;;5.22;;
20073;SDS011;10197;54.282;10.078;2023-05-07T08:19:35;6.70;;;5.90;;
20073;SDS011;10197;54.282;10.078;2023-05-07T08:22:04;5.82;;;5.22;;
20073;SDS011;10197;54.282;10.078;2023-05-07T08:24:33;5.78;;;5.03;;
20073;SDS011;10197;54.282;10.078;2023-05-07T08:27:02;6.50;;;5.13;;
20073;SDS011;10197;54.282;10.078;2023-05-07T08:29:44;6.95;;;5.03;;
20073;SDS011;10197;54.282;10.078;2023-05-07T08:32:14;5.93;;;5.32;;
20073;SDS011;10197;54.282;10.078;2023-05-07T08:34:41;6.22;;;5.45;;
20073;SDS011;10197;54.282;10.078;2023-05-07T08:37:08;4.63;;;4.22;;
20073;SDS011;10197;54.282;10.078;2023-05-07T08:39:35;7.28;;;5.80;;
20073;SDS011;10197;54.282;10.078;2023-05-07T08:42:06;6.40;;;5.80;;
20073;SDS011;10197;54.282;10.078;2023-05-07T08:44:33;5.78;;;5.22;;
20073;SDS011;10197;54.282;10.078;2023-05-07T08:47:02;7.40;;;6.10;;
20073;SDS011;10197;54.282;10.078;2023-05-07T08:49:33;6.43;;;5.80;;
20073;SDS011;10197;54.282;10.078;2023-05-07T08:52:01;7.30;;;6.10;;
20073;SDS011;10197;54.282;10.078;2023-05-07T08:54:28;7.63;;;5.90;;
20073;SDS011;10197;54.282;10.078;2023-05-07T08:56:56;8.65;;;5.50;;
20073;SDS011;10197;54.282;10.078;2023-05-07T08:59:23;6.70;;;6.00;;
20073;SDS011;10197;54.282;10.078;2023-05-07T09:01:51;7.03;;;5.38;;
20073;SDS011;10197;54.282;10.078;2023-05-07T09:04:20;7.57;;;5.57;;
20073;SDS011;10197;54.282;10.078;2023-05-07T09:06:47;6.55;;;5.18;;
20073;SDS011;10197;54.282;10.078;2023-05-07T09:09:14;7.32;;;5.55;;
20073;SDS011;10197;54.282;10.078;2023-05-07T09:11:41;6.70;;;5.70;;
20073;SDS011;10197;54.282;10.078;2023-05-07T09:14:09;6.03;;;5.43;;
20073;SDS011;10197;54.282;10.078;2023-05-07T09:16:39;5.82;;;4.95;;
20073;SDS011;10197;54.282;10.078;2023-05-07T09:19:07;5.68;;;5.13;;
20073;SDS011;10197;54.282;10.078;2023-05-07T09:21:36;5.82;;;5.25;;
20073;SDS011;10197;54.282;10.078;2023-05-07T09:24:07;6.97;;;5.25;;
20073;SDS011;10197;54.282;10.078;2023-05-07T09:26:38;6.15;;;5.55;;
20073;SDS011;10197;54.282;10.078;2023-05-07T09:29:07;4.70;;;4.30;;
20073;SDS011;10197;54.282;10.078;2023-05-07T09:31:36;6.80;;;5.85;;
20073;SDS011;10197;54.282;10.078;2023-05-07T09:34:05;6.88;;;5.10;;
20073;SDS011;10197;54.282;10.078;2023-05-07T09:36:37;19.40;;;17.50;;
20073;SDS011;10197;54.282;10.078;2023-05-07T09:39:04;6.45;;;5.82;;
20073;SDS011;10197;54.282;10.078;2023-05-07T09:41:31;6.80;;;5.10;;
20073;SDS011;10197;54.282;10.078;2023-05-07T09:44:10;6.30;;;4.80;;
20073;SDS011;10197;54.282;10.078;2023-05-07T09:46:43;6.18;;;5.13;;
20073;SDS011;10197;54.282;10.078;2023-05-07T09:49:19;6.78;;;4.80;;
20073;SDS011;10197;54.282;10.078;2023-05-07T09:51:52;5.88;;;5.10;;
20073;SDS011;10197;54.282;10.078;2023-05-07T09:54:23;6.97;;;4.93;;
20073;SDS011;10197;54.282;10.078;2023-05-07T09:56:53;5.43;;;4.78;;
20073;SDS011;10197;54.282;10.078;2023-05-07T09:59:23;5.18;;;4.43;;
20073;SDS011;10197;54.282;10.078;2023-05-07T10:01:52;6.18;;;5.18;;
20073;SDS011;10197;54.282;10.078;2023-05-07T10:04:21;5.38;;;4.88;;
20073;SDS011;10197;54.282;10.078;2023-05-07T10:06:49;5.68;;;4.70;;
20073;SDS011;10197;54.282;10.078;2023-05-07T10:09:17;9.35;;;5.95;;
20073;SDS011;10197;54.282;10.078;2023-05-07T10:11:45;7.18;;;4.85;;
20073;SDS011;10197;54.282;10.078;2023-05-07T10:14:12;5.82;;;4.50;;
20073;SDS011;10197;54.282;10.078;2023-05-07T10:16:41;4.97;;;4.47;;
20073;SDS011;10197;54.282;10.078;2023-05-07T10:19:12;6.47;;;4.90;;
20073;SDS011;10197;54.282;10.078;2023-05-07T10:21:44;5.82;;;4.63;;
20073;SDS011;10197;54.282;10.078;2023-05-07T10:24:16;5.20;;;4.60;;
20073;SDS011;10197;54.282;10.078;2023-05-07T10:26:47;4.65;;;4.25;;
20073;SDS011;10197;54.282;10.078;2023-05-07T10:29:18;5.65;;;4.30;;
20073;SDS011;10197;54.282;10.078;2023-05-07T10:31:54;5.93;;;5.03;;
20073;SDS011;10197;54.282;10.078;2023-05-07T10:34:24;5.47;;;4.80;;
20073;SDS011;10197;54.282;10.078;2023-05-07T10:36:54;5.15;;;4.65;;
20073;SDS011;10197;54.282;10.078;2023-05-07T10:39:26;4.82;;;3.97;;
20073;SDS011;10197;54.282;10.078;2023-05-07T10:41:53;6.55;;;4.20;;
20073;SDS011;10197;54.282;10.078;2023-05-07T10:44:24;6.20;;;4.32;;
20073;SDS011;10197;54.282;10.078;2023-05-07T10:47:05;5.13;;;4.63;;
20073;SDS011;10197;54.282;10.078;2023-05-07T10:49:36;5.82;;;3.53;;
20073;SDS011;10197;54.282;10.078;2023-05-07T10:52:10;4.75;;;4.25;;
20073;SDS011;10197;54.282;10.078;2023-05-07T10:54:41;3.80;;;3.50;;
20073;SDS011;10197;54.282;10.078;2023-05-07T11:03:16;4.00;;;3.70;;
20073;SDS011;10197;54.282;10.078;2023-05-07T11:06:10;4.53;;;3.40;;
20073;SDS011;10197;54.282;10.078;2023-05-07T11:08:52;5.60;;;3.70;;
20073;SDS011;10197;54.282;10.078;2023-05-07T11:14:44;6.53;;;4.10;;
20073;SDS011;10197;54.282;10.078;2023-05-07T11:17:17;3.53;;;3.22;;
20073;SDS011;10197;54.282;10.078;2023-05-07T11:19:50;4.53;;;3.72;;
20073;SDS011;10197;54.282;10.078;2023-05-07T11:22:36;4.95;;;3.50;;
20073;SDS011;10197;54.282;10.078;2023-05-07T11:25:25;3.53;;;3.22;;
20073;SDS011;10197;54.282;10.078;2023-05-07T11:28:05;4.47;;;3.30;;
20073;SDS011;10197;54.282;10.078;2023-05-07T11:33:30;3.90;;;3.03;;
20073;SDS011;10197;54.282;10.078;2023-05-07T11:36:02;4.60;;;3.65;;
20073;SDS011;10197;54.282;10.078;2023-05-07T11:38:36;4.20;;;3.00;;
20073;SDS011;10197;54.282;10.078;2023-05-07T11:41:04;4.45;;;2.97;;
20073;SDS011;10197;54.282;10.078;2023-05-07T11:43:33;3.25;;;2.65;;
20073;SDS011;10197;54.282;10.078;2023-05-07T11:46:05;3.78;;;2.85;;
20073;SDS011;10197;54.282;10.078;2023-05-07T11:48:32;5.03;;;3.13;;
20073;SDS011;10197;54.282;10.078;2023-05-07T11:51:00;5.35;;;3.10;;
20073;SDS011;10197;54.282;10.078;2023-05-07T11:53:33;3.40;;;3.10;;
20073;SDS011;10197;54.282;10.078;2023-05-07T11:56:05;3.10;;;2.90;;
20073;SDS011;10197;54.282;10.078;2023-05-07T11:58:34;5.47;;;3.05;;
20073;SDS011;10197;54.282;10.078;2023-05-07T12:01:01;4.28;;;2.78;;
20073;SDS011;10197;54.282;10.078;2023-05-07T12:03:31;2.85;;;2.65;;
20073;SDS011;10197;54.282;10.078;2023-05-07T12:05:59;4.47;;;2.45;;
20073;SDS011;10197;54.282;10.078;2023-05-07T12:08:27;3.22;;;2.58;;
20073;SDS011;10197;54.282;10.078;2023-05-07T12:10:54;1.95;;;1.80;;
20073;SDS011;10197;54.282;10.078;2023-05-07T12:13:22;3.08;;;2.75;;
20073;SDS011;10197;54.282;10.078;2023-05-07T12:15:51;3.65;;;2.55;;
20073;SDS011;10197;54.282;10.078;2023-05-07T12:18:19;4.15;;;2.20;;
20073;SDS011;10197;54.282;10.078;2023-05-07T12:20:46;2.83;;;2.47;;
20073;SDS011;10197;54.282;10.078;2023-05-07T12:23:14;2.67;;;2.30;;
20073;SDS011;10197;54.282;10.078;2023-05-07T12:25:42;2.42;;;2.10;;
20073;SDS011;10197;54.282;10.078;2023-05-07T12:28:12;2.00;;;1.88;;
20073;SDS011;10197;54.282;10.078;2023-05-07T12:30:40;3.25;;;2.05;;
20073;SDS011;10197;54.282;10.078;2023-05-07T12:33:10;6.22;;;2.10;;
20073;SDS011;10197;54.282;10.078;2023-05-07T12:35:38;2.47;;;2.28;;
20073;SDS011;10197;54.282;10.078;2023-05-07T12:38:07;2.70;;;1.95;;
20073;SDS011;10197;54.282;10.078;2023-05-07T12:40:36;2.47;;;2.28;;
20073;SDS011;10197;54.282;10.078;2023-05-07T12:43:05;2.80;;;2.03;;
20073;SDS011;10197;54.282;10.078;2023-05-07T12:45:32;2.63;;;2.00;;
20073;SDS011;10197;54.282;10.078;2023-05-07T12:48:03;6.75;;;2.45;;
20073;SDS011;10197;54.282;10.078;2023-05-07T12:50:32;2.60;;;2.20;;
20073;SDS011;10197;54.282;10.078;2023-05-07T12:52:59;3.88;;;2.25;;
20073;SDS011;10197;54.282;10.078;2023-05-07T12:55:28;2.75;;;2.20;;
20073;SDS011;10197;54.282;10.078;2023-05-07T12:57:55;2.63;;;2.22;;
20073;SDS011;10197;54.282;10.078;2023-05-07T13:00:32;4.15;;;2.33;;
20073;SDS011;10197;54.282;10.078;2023-05-07T13:03:00;3.28;;;2.13;;
20073;SDS011;10197;54.282;10.078;2023-05-07T13:05:26;1.85;;;1.73;;
20073;SDS011;10197;54.282;10.078;2023-05-07T13:07:55;3.17;;;2.00;;
20073;SDS011;10197;54.282;10.078;2023-05-07T13:10:22;2.20;;;1.95;;
20073;SDS011;10197;54.282;10.078;2023-05-07T13:12:50;1.90;;;1.80;;
20073;SDS011;10197;54.282;10.078;2023-05-07T13:15:17;5.25;;;1.80;;
20073;SDS011;10197;54.282;10.078;2023-05-07T13:17:45;4.38;;;2.00;;
20073;SDS011;10197;54.282;10.078;2023-05-07T13:20:11;3.65;;;2.10;;
20073;SDS011;10197;54.282;10.078;2023-05-07T13:22:39;1.90;;;1.70;;
20073;SDS011;10197;54.282;10.078;2023-05-07T13:25:08;2.55;;;2.15;;
20073;SDS011;10197;54.282;10.078;2023-05-07T13:27:35;3.97;;;2.10;;
20073;SDS011;10197;54.282;10.078;2023-05-07T13:30:03;3.95;;;2.03;;
20073;SDS011;10197;54.282;10.078;2023-05-07T13:32:30;1.42;;;1.33;;
20073;SDS011;10197;54.282;10.078;2023-05-07T13:34:57;4.28;;;1.92;;
20073;SDS011;10197;54.282;10.078;2023-05-07T13:37:25;2.67;;;1.98;;
20073;SDS011;10197;54.282;10.078;2023-05-07T13:39:52;1.75;;;1.60;;
20073;SDS011;10197;54.282;10.078;2023-05-07T13:42:20;2.15;;;1.85;;
20073;SDS011;10197;54.282;10.078;2023-05-07T13:44:51;2.20;;;2.00;;
20073;SDS011;10197;54.282;10.078;2023-05-07T13:47:32;3.42;;;1.83;;
20073;SDS011;10197;54.282;10.078;2023-05-07T13:50:01;2.20;;;1.80;;
20073;SDS011;10197;54.282;10.078;2023-05-07T13:52:29;4.22;;;2.28;;
20073;SDS011;10197;54.282;10.078;2023-05-07T13:54:55;2.95;;;1.90;;
20073;SDS011;10197;54.282;10.078;2023-05-07T13:57:25;2.67;;;2.33;;
20073;SDS011;10197;54.282;10.078;2023-05-07T13:59:52;2.47;;;1.60;;
20073;SDS011;10197;54.282;10.078;2023-05-07T14:02:19;3.42;;;1.83;;
20073;SDS011;10197;54.282;10.078;2023-05-07T14:04:46;3.85;;;2.05;;
20073;SDS011;10197;54.282;10.078;2023-05-07T14:07:15;2.53;;;2.10;;
20073;SDS011;10197;54.282;10.078;2023-05-07T14:09:51;1.90;;;1.70;;
20073;SDS011;10197;54.282;10.078;2023-05-07T14:12:18;3.20;;;1.83;;
20073;SDS011;10197;54.282;10.078;2023-05-07T14:14:49;3.42;;;2.17;;
20073;SDS011;10197;54.282;10.078;2023-05-07T14:17:17;3.05;;;1.85;;
20073;SDS011;10197;54.282;10.078;2023-05-07T14:19:45;1.98;;;1.77;;
20073;SDS011;10197;54.282;10.078;2023-05-07T14:22:13;1.92;;;1.60;;
20073;SDS011;10197;54.282;10.078;2023-05-07T14:24:39;1.98;;;1.40;;
20073;SDS011;10197;54.282;10.078;2023-05-07T14:27:07;2.63;;;1.77;;
20073;SDS011;10197;54.282;10.078;2023-05-07T14:29:34;2.65;;;2.00;;
20073;SDS011;10197;54.282;10.078;2023-05-07T14:32:03;2.42;;;1.60;;
20073;SDS011;10197;54.282;10.078;2023-05-07T14:34:30;2.45;;;1.52;;
20073;SDS011;10197;54.282;10.078;2023-05-07T14:36:57;2.28;;;1.77;;
20073;SDS011;10197;54.282;10.078;2023-05-07T14:39:24;2.65;;;1.63;;
20073;SDS011;10197;54.282;10.078;2023-05-07T14:41:51;2.35;;;1.70;;
20073;SDS011;10197;54.282;10.078;2023-05-07T14:44:19;3.60;;;1.85;;
20073;SDS011;10197;54.282;10.078;2023-05-07T14:46:46;1.73;;;1.63;;